sensor_id;sensor_type;location;lat;lon;timestamp;temperature;humidity
70366;DHT22;57787;48.216;12.396;2022-10-16T00:01:16;14.40;90.20
70366;DHT22;57787;48.216;12.396;2022-10-16T00:03:43;14.40;90.00
70366;DHT22;57787;48.216;12.396;2022-10-16T00:06:11;14.40;89.80
70366;DHT22;57787;48.216;12.396;2022-10-16T00:08:37;14.40;89.80
70366;DHT22;57787;48.216;12.396;2022-10-16T00:11:11;14.40;89.60
70366;DHT22;57787;48.216;12.396;2022-10-16T00:13:39;14.30;89.60
70366;DHT22;57787;48.216;12.396;2022-10-16T00:16:06;14.30;89.20
70366;DHT22;57787;48.216;12.396;2022-10-16T00:18:33;14.20;89.30
70366;DHT22;57787;48.216;12.396;2022-10-16T00:21:03;14.10;89.40
70366;DHT22;57787;48.216;12.396;2022-10-16T00:23:31;14.10;89.40
70366;DHT22;57787;48.216;12.396;2022-10-16T00:25:59;14.00;89.30
70366;DHT22;57787;48.216;12.396;2022-10-16T00:28:26;13.90;89.20
70366;DHT22;57787;48.216;12.396;2022-10-16T00:30:53;13.90;89.00
70366;DHT22;57787;48.216;12.396;2022-10-16T00:33:21;13.80;89.00
70366;DHT22;57787;48.216;12.396;2022-10-16T00:35:47;13.70;89.00
70366;DHT22;57787;48.216;12.396;2022-10-16T00:38:14;13.60;89.30
70366;DHT22;57787;48.216;12.396;2022-10-16T00:40:41;13.60;89.30
70366;DHT22;57787;48.216;12.396;2022-10-16T00:43:14;13.50;89.60
70366;DHT22;57787;48.216;12.396;2022-10-16T00:45:58;13.50;89.90
70366;DHT22;57787;48.216;12.396;2022-10-16T00:48:25;13.40;89.60
70366;DHT22;57787;48.216;12.396;2022-10-16T00:50:52;13.30;89.90
70366;DHT22;57787;48.216;12.396;2022-10-16T00:53:19;13.30;89.80
70366;DHT22;57787;48.216;12.396;2022-10-16T00:55:46;13.20;89.60
70366;DHT22;57787;48.216;12.396;2022-10-16T00:58:13;13.10;89.60
70366;DHT22;57787;48.216;12.396;2022-10-16T01:00:39;13.00;89.70
70366;DHT22;57787;48.216;12.396;2022-10-16T01:03:22;13.00;89.90
70366;DHT22;57787;48.216;12.396;2022-10-16T01:05:50;13.00;89.90
70366;DHT22;57787;48.216;12.396;2022-10-16T01:08:27;12.90;89.70
70366;DHT22;57787;48.216;12.396;2022-10-16T01:11:00;12.80;89.80
70366;DHT22;57787;48.216;12.396;2022-10-16T01:13:33;12.80;89.90
70366;DHT22;57787;48.216;12.396;2022-10-16T01:16:05;12.70;89.70
70366;DHT22;57787;48.216;12.396;2022-10-16T01:21:04;12.60;90.00
70366;DHT22;57787;48.216;12.396;2022-10-16T01:28:59;12.50;90.70
70366;DHT22;57787;48.216;12.396;2022-10-16T01:31:30;12.50;90.70
70366;DHT22;57787;48.216;12.396;2022-10-16T01:34:10;12.40;90.70
70366;DHT22;57787;48.216;12.396;2022-10-16T01:36:39;12.40;90.60
70366;DHT22;57787;48.216;12.396;2022-10-16T01:39:08;12.30;90.70
70366;DHT22;57787;48.216;12.396;2022-10-16T01:41:40;12.30;90.70
70366;DHT22;57787;48.216;12.396;2022-10-16T01:44:08;12.30;90.60
70366;DHT22;57787;48.216;12.396;2022-10-16T01:46:37;12.30;90.80
70366;DHT22;57787;48.216;12.396;2022-10-16T01:49:05;12.30;90.70
70366;DHT22;57787;48.216;12.396;2022-10-16T01:51:33;12.30;90.90
70366;DHT22;57787;48.216;12.396;2022-10-16T01:54:01;12.30;91.00
70366;DHT22;57787;48.216;12.396;2022-10-16T01:56:29;12.30;91.30
70366;DHT22;57787;48.216;12.396;2022-10-16T01:59:07;12.30;91.50
70366;DHT22;57787;48.216;12.396;2022-10-16T02:01:36;12.30;91.80
70366;DHT22;57787;48.216;12.396;2022-10-16T02:04:07;12.30;92.00
70366;DHT22;57787;48.216;12.396;2022-10-16T02:06:35;12.30;91.80
70366;DHT22;57787;48.216;12.396;2022-10-16T02:09:02;12.30;91.60
70366;DHT22;57787;48.216;12.396;2022-10-16T02:11:29;12.30;92.10
70366;DHT22;57787;48.216;12.396;2022-10-16T02:13:58;12.30;92.40
70366;DHT22;57787;48.216;12.396;2022-10-16T02:16:35;12.30;92.00
70366;DHT22;57787;48.216;12.396;2022-10-16T02:19:02;12.30;92.00
70366;DHT22;57787;48.216;12.396;2022-10-16T02:21:30;12.20;91.90
70366;DHT22;57787;48.216;12.396;2022-10-16T02:24:02;12.30;91.70
70366;DHT22;57787;48.216;12.396;2022-10-16T02:26:33;12.20;91.80
70366;DHT22;57787;48.216;12.396;2022-10-16T02:29:02;12.20;91.60
70366;DHT22;57787;48.216;12.396;2022-10-16T02:31:32;12.20;91.80
70366;DHT22;57787;48.216;12.396;2022-10-16T02:34:01;12.20;91.90
70366;DHT22;57787;48.216;12.396;2022-10-16T02:36:31;12.20;91.90
70366;DHT22;57787;48.216;12.396;2022-10-16T02:38:58;12.20;91.90
70366;DHT22;57787;48.216;12.396;2022-10-16T02:41:27;12.10;91.80
70366;DHT22;57787;48.216;12.396;2022-10-16T02:43:54;12.20;92.00
70366;DHT22;57787;48.216;12.396;2022-10-16T02:46:21;12.20;91.80
70366;DHT22;57787;48.216;12.396;2022-10-16T02:48:48;12.10;91.70
70366;DHT22;57787;48.216;12.396;2022-10-16T02:51:15;12.10;91.80
70366;DHT22;57787;48.216;12.396;2022-10-16T02:53:41;12.10;91.60
70366;DHT22;57787;48.216;12.396;2022-10-16T02:56:08;12.10;91.40
70366;DHT22;57787;48.216;12.396;2022-10-16T03:01:06;12.00;91.00
70366;DHT22;57787;48.216;12.396;2022-10-16T03:03:33;11.90;91.10
70366;DHT22;57787;48.216;12.396;2022-10-16T03:05:59;11.90;90.80
70366;DHT22;57787;48.216;12.396;2022-10-16T03:08:27;11.80;90.80
70366;DHT22;57787;48.216;12.396;2022-10-16T03:10:54;11.80;90.70
70366;DHT22;57787;48.216;12.396;2022-10-16T03:13:20;11.70;90.80
70366;DHT22;57787;48.216;12.396;2022-10-16T03:15:48;11.70;90.70
70366;DHT22;57787;48.216;12.396;2022-10-16T03:18:15;11.70;90.70
70366;DHT22;57787;48.216;12.396;2022-10-16T03:20:42;11.60;90.70
70366;DHT22;57787;48.216;12.396;2022-10-16T03:23:09;11.60;90.80
70366;DHT22;57787;48.216;12.396;2022-10-16T03:25:36;11.50;91.10
70366;DHT22;57787;48.216;12.396;2022-10-16T03:28:03;11.50;91.20
70366;DHT22;57787;48.216;12.396;2022-10-16T03:30:32;11.50;91.30
70366;DHT22;57787;48.216;12.396;2022-10-16T03:32:58;11.50;91.30
70366;DHT22;57787;48.216;12.396;2022-10-16T03:35:27;11.40;90.90
70366;DHT22;57787;48.216;12.396;2022-10-16T03:37:54;11.40;91.20
70366;DHT22;57787;48.216;12.396;2022-10-16T03:40:20;11.40;91.50
70366;DHT22;57787;48.216;12.396;2022-10-16T03:42:47;11.40;91.40
70366;DHT22;57787;48.216;12.396;2022-10-16T03:45:14;11.30;91.20
70366;DHT22;57787;48.216;12.396;2022-10-16T03:47:40;11.30;91.00
70366;DHT22;57787;48.216;12.396;2022-10-16T03:50:07;11.30;90.90
70366;DHT22;57787;48.216;12.396;2022-10-16T03:52:36;11.20;90.90
70366;DHT22;57787;48.216;12.396;2022-10-16T03:55:03;11.20;90.60
70366;DHT22;57787;48.216;12.396;2022-10-16T03:57:30;11.10;90.70
70366;DHT22;57787;48.216;12.396;2022-10-16T03:59:57;11.10;90.40
70366;DHT22;57787;48.216;12.396;2022-10-16T04:02:24;11.00;90.60
70366;DHT22;57787;48.216;12.396;2022-10-16T04:04:51;11.00;90.50
70366;DHT22;57787;48.216;12.396;2022-10-16T04:07:18;10.90;90.40
70366;DHT22;57787;48.216;12.396;2022-10-16T04:09:47;10.90;90.30
70366;DHT22;57787;48.216;12.396;2022-10-16T04:12:13;10.80;90.40
70366;DHT22;57787;48.216;12.396;2022-10-16T04:14:40;10.80;90.60
70366;DHT22;57787;48.216;12.396;2022-10-16T04:17:07;10.80;90.70
70366;DHT22;57787;48.216;12.396;2022-10-16T04:19:33;10.80;90.60
70366;DHT22;57787;48.216;12.396;2022-10-16T04:22:00;10.80;90.70
70366;DHT22;57787;48.216;12.396;2022-10-16T04:24:26;10.70;90.90
70366;DHT22;57787;48.216;12.396;2022-10-16T04:26:53;10.70;91.00
70366;DHT22;57787;48.216;12.396;2022-10-16T04:29:20;10.70;91.00
70366;DHT22;57787;48.216;12.396;2022-10-16T04:31:46;10.60;90.80
70366;DHT22;57787;48.216;12.396;2022-10-16T04:34:13;10.60;90.70
70366;DHT22;57787;48.216;12.396;2022-10-16T04:36:40;10.60;91.00
70366;DHT22;57787;48.216;12.396;2022-10-16T04:39:06;10.60;90.90
70366;DHT22;57787;48.216;12.396;2022-10-16T04:41:33;10.50;91.10
70366;DHT22;57787;48.216;12.396;2022-10-16T04:43:59;10.50;91.10
70366;DHT22;57787;48.216;12.396;2022-10-16T04:46:26;10.50;91.20
70366;DHT22;57787;48.216;12.396;2022-10-16T04:48:53;10.50;91.10
70366;DHT22;57787;48.216;12.396;2022-10-16T04:51:20;10.50;91.50
70366;DHT22;57787;48.216;12.396;2022-10-16T04:53:46;10.50;91.50
70366;DHT22;57787;48.216;12.396;2022-10-16T04:56:13;10.50;91.60
70366;DHT22;57787;48.216;12.396;2022-10-16T04:58:41;10.60;91.80
70366;DHT22;57787;48.216;12.396;2022-10-16T05:01:08;10.60;91.80
70366;DHT22;57787;48.216;12.396;2022-10-16T05:03:34;10.60;91.90
70366;DHT22;57787;48.216;12.396;2022-10-16T05:06:01;10.70;92.10
70366;DHT22;57787;48.216;12.396;2022-10-16T05:08:27;10.60;92.00
70366;DHT22;57787;48.216;12.396;2022-10-16T05:10:54;10.70;92.00
70366;DHT22;57787;48.216;12.396;2022-10-16T05:13:21;10.70;92.30
70366;DHT22;57787;48.216;12.396;2022-10-16T05:15:47;10.70;92.20
70366;DHT22;57787;48.216;12.396;2022-10-16T05:18:15;10.80;92.30
70366;DHT22;57787;48.216;12.396;2022-10-16T05:20:41;10.80;92.50
70366;DHT22;57787;48.216;12.396;2022-10-16T05:23:08;10.80;92.50
70366;DHT22;57787;48.216;12.396;2022-10-16T05:25:36;10.90;92.80
70366;DHT22;57787;48.216;12.396;2022-10-16T05:28:03;10.90;92.90
70366;DHT22;57787;48.216;12.396;2022-10-16T05:30:31;10.90;93.00
70366;DHT22;57787;48.216;12.396;2022-10-16T05:33:00;11.00;93.20
70366;DHT22;57787;48.216;12.396;2022-10-16T05:35:26;11.00;93.20
70366;DHT22;57787;48.216;12.396;2022-10-16T05:37:53;11.00;93.20
70366;DHT22;57787;48.216;12.396;2022-10-16T05:40:21;11.10;93.10
70366;DHT22;57787;48.216;12.396;2022-10-16T05:42:47;11.10;93.30
70366;DHT22;57787;48.216;12.396;2022-10-16T05:45:14;11.20;93.20
70366;DHT22;57787;48.216;12.396;2022-10-16T05:47:42;11.20;93.40
70366;DHT22;57787;48.216;12.396;2022-10-16T05:50:11;11.30;93.40
70366;DHT22;57787;48.216;12.396;2022-10-16T05:52:37;11.30;93.50
70366;DHT22;57787;48.216;12.396;2022-10-16T05:55:04;11.40;93.60
70366;DHT22;57787;48.216;12.396;2022-10-16T05:57:31;11.40;93.70
70366;DHT22;57787;48.216;12.396;2022-10-16T05:59:58;11.50;93.70
70366;DHT22;57787;48.216;12.396;2022-10-16T06:02:25;11.60;93.80
70366;DHT22;57787;48.216;12.396;2022-10-16T06:04:52;11.60;93.80
70366;DHT22;57787;48.216;12.396;2022-10-16T06:07:21;11.70;93.80
70366;DHT22;57787;48.216;12.396;2022-10-16T06:09:48;11.80;93.80
70366;DHT22;57787;48.216;12.396;2022-10-16T06:12:16;11.80;93.90
70366;DHT22;57787;48.216;12.396;2022-10-16T06:14:42;11.80;93.90
70366;DHT22;57787;48.216;12.396;2022-10-16T06:17:10;11.90;94.00
70366;DHT22;57787;48.216;12.396;2022-10-16T06:19:37;12.00;94.00
70366;DHT22;57787;48.216;12.396;2022-10-16T06:22:03;12.00;94.00
70366;DHT22;57787;48.216;12.396;2022-10-16T06:24:32;12.10;94.00
70366;DHT22;57787;48.216;12.396;2022-10-16T06:26:59;12.10;94.00
70366;DHT22;57787;48.216;12.396;2022-10-16T06:29:26;12.10;94.00
70366;DHT22;57787;48.216;12.396;2022-10-16T06:31:54;12.20;94.00
70366;DHT22;57787;48.216;12.396;2022-10-16T06:34:21;12.20;94.10
70366;DHT22;57787;48.216;12.396;2022-10-16T06:36:48;12.30;94.10
70366;DHT22;57787;48.216;12.396;2022-10-16T06:39:14;12.30;94.20
70366;DHT22;57787;48.216;12.396;2022-10-16T06:41:42;12.30;94.20
70366;DHT22;57787;48.216;12.396;2022-10-16T06:44:08;12.30;94.10
70366;DHT22;57787;48.216;12.396;2022-10-16T06:46:35;12.40;94.20
70366;DHT22;57787;48.216;12.396;2022-10-16T06:49:02;12.50;94.30
70366;DHT22;57787;48.216;12.396;2022-10-16T06:51:29;12.50;94.40
70366;DHT22;57787;48.216;12.396;2022-10-16T06:53:58;12.60;94.50
70366;DHT22;57787;48.216;12.396;2022-10-16T06:56:30;12.60;94.60
70366;DHT22;57787;48.216;12.396;2022-10-16T06:58:58;12.70;94.40
70366;DHT22;57787;48.216;12.396;2022-10-16T07:01:25;12.80;94.10
70366;DHT22;57787;48.216;12.396;2022-10-16T07:03:52;12.80;93.90
70366;DHT22;57787;48.216;12.396;2022-10-16T07:06:19;12.80;93.80
70366;DHT22;57787;48.216;12.396;2022-10-16T07:08:46;12.80;93.70
70366;DHT22;57787;48.216;12.396;2022-10-16T07:11:14;12.80;93.70
70366;DHT22;57787;48.216;12.396;2022-10-16T07:13:42;12.80;93.70
70366;DHT22;57787;48.216;12.396;2022-10-16T07:16:10;12.90;93.70
70366;DHT22;57787;48.216;12.396;2022-10-16T07:18:37;12.90;93.70
70366;DHT22;57787;48.216;12.396;2022-10-16T07:21:07;12.90;93.60
70366;DHT22;57787;48.216;12.396;2022-10-16T07:23:35;13.00;93.60
70366;DHT22;57787;48.216;12.396;2022-10-16T07:26:02;13.00;93.40
70366;DHT22;57787;48.216;12.396;2022-10-16T07:28:29;13.00;93.10
70366;DHT22;57787;48.216;12.396;2022-10-16T07:30:59;13.10;92.70
70366;DHT22;57787;48.216;12.396;2022-10-16T07:33:26;13.10;92.80
70366;DHT22;57787;48.216;12.396;2022-10-16T07:35:53;13.10;92.90
70366;DHT22;57787;48.216;12.396;2022-10-16T07:38:22;13.10;92.90
70366;DHT22;57787;48.216;12.396;2022-10-16T07:40:55;13.20;92.70
70366;DHT22;57787;48.216;12.396;2022-10-16T07:43:23;13.30;92.80
70366;DHT22;57787;48.216;12.396;2022-10-16T07:45:49;13.30;93.10
70366;DHT22;57787;48.216;12.396;2022-10-16T07:48:17;13.40;93.10
70366;DHT22;57787;48.216;12.396;2022-10-16T07:50:44;13.50;93.10
70366;DHT22;57787;48.216;12.396;2022-10-16T07:53:11;13.60;93.20
70366;DHT22;57787;48.216;12.396;2022-10-16T07:55:39;13.80;93.30
70366;DHT22;57787;48.216;12.396;2022-10-16T07:58:06;13.80;93.00
70366;DHT22;57787;48.216;12.396;2022-10-16T08:00:33;14.00;93.00
70366;DHT22;57787;48.216;12.396;2022-10-16T08:03:00;14.10;92.80
70366;DHT22;57787;48.216;12.396;2022-10-16T08:07:56;14.30;92.30
70366;DHT22;57787;48.216;12.396;2022-10-16T08:10:25;14.50;92.30
70366;DHT22;57787;48.216;12.396;2022-10-16T08:12:53;14.70;92.20
70366;DHT22;57787;48.216;12.396;2022-10-16T08:15:20;14.80;91.60
70366;DHT22;57787;48.216;12.396;2022-10-16T08:17:54;14.90;90.70
70366;DHT22;57787;48.216;12.396;2022-10-16T08:20:21;14.90;90.40
70366;DHT22;57787;48.216;12.396;2022-10-16T08:22:48;15.00;90.10
70366;DHT22;57787;48.216;12.396;2022-10-16T08:25:15;15.00;89.70
70366;DHT22;57787;48.216;12.396;2022-10-16T08:27:44;15.20;89.10
70366;DHT22;57787;48.216;12.396;2022-10-16T08:30:11;15.30;88.80
70366;DHT22;57787;48.216;12.396;2022-10-16T08:32:38;15.50;88.70
70366;DHT22;57787;48.216;12.396;2022-10-16T08:35:04;15.70;88.60
70366;DHT22;57787;48.216;12.396;2022-10-16T08:37:31;15.90;88.30
70366;DHT22;57787;48.216;12.396;2022-10-16T08:39:58;16.10;87.00
70366;DHT22;57787;48.216;12.396;2022-10-16T08:42:38;16.30;86.70
70366;DHT22;57787;48.216;12.396;2022-10-16T08:50:40;16.80;85.00
70366;DHT22;57787;48.216;12.396;2022-10-16T08:53:10;16.90;84.40
70366;DHT22;57787;48.216;12.396;2022-10-16T08:55:45;17.10;84.00
70366;DHT22;57787;48.216;12.396;2022-10-16T09:01:12;17.30;84.00
70366;DHT22;57787;48.216;12.396;2022-10-16T09:03:48;17.40;82.60
70366;DHT22;57787;48.216;12.396;2022-10-16T09:08:51;17.60;81.50
70366;DHT22;57787;48.216;12.396;2022-10-16T09:11:41;17.70;80.80
70366;DHT22;57787;48.216;12.396;2022-10-16T09:16:46;17.90;79.50
70366;DHT22;57787;48.216;12.396;2022-10-16T09:21:45;18.00;78.10
70366;DHT22;57787;48.216;12.396;2022-10-16T09:26:41;18.20;78.40
70366;DHT22;57787;48.216;12.396;2022-10-16T09:29:11;18.20;78.10
70366;DHT22;57787;48.216;12.396;2022-10-16T09:31:38;18.30;76.80
70366;DHT22;57787;48.216;12.396;2022-10-16T09:34:05;18.30;75.10
70366;DHT22;57787;48.216;12.396;2022-10-16T09:36:39;18.40;75.80
70366;DHT22;57787;48.216;12.396;2022-10-16T09:39:08;18.40;75.40
70366;DHT22;57787;48.216;12.396;2022-10-16T09:41:39;18.50;75.00
70366;DHT22;57787;48.216;12.396;2022-10-16T09:44:16;18.60;75.40
70366;DHT22;57787;48.216;12.396;2022-10-16T09:46:45;18.70;75.50
70366;DHT22;57787;48.216;12.396;2022-10-16T09:51:47;18.80;75.70
70366;DHT22;57787;48.216;12.396;2022-10-16T09:54:16;18.80;75.70
70366;DHT22;57787;48.216;12.396;2022-10-16T09:56:44;18.90;76.40
70366;DHT22;57787;48.216;12.396;2022-10-16T09:59:17;19.00;77.00
70366;DHT22;57787;48.216;12.396;2022-10-16T10:01:51;19.00;77.10
70366;DHT22;57787;48.216;12.396;2022-10-16T10:04:19;19.10;76.30
70366;DHT22;57787;48.216;12.396;2022-10-16T10:06:46;19.20;76.50
70366;DHT22;57787;48.216;12.396;2022-10-16T10:09:21;19.30;75.90
70366;DHT22;57787;48.216;12.396;2022-10-16T10:11:55;19.30;75.30
70366;DHT22;57787;48.216;12.396;2022-10-16T10:14:23;19.30;74.90
70366;DHT22;57787;48.216;12.396;2022-10-16T10:16:52;19.40;75.60
70366;DHT22;57787;48.216;12.396;2022-10-16T10:19:21;19.50;76.60
70366;DHT22;57787;48.216;12.396;2022-10-16T10:21:49;19.50;76.60
70366;DHT22;57787;48.216;12.396;2022-10-16T10:24:17;19.70;77.10
70366;DHT22;57787;48.216;12.396;2022-10-16T10:26:47;19.70;76.70
70366;DHT22;57787;48.216;12.396;2022-10-16T10:32:26;19.90;77.10
70366;DHT22;57787;48.216;12.396;2022-10-16T10:35:07;20.00;76.20
70366;DHT22;57787;48.216;12.396;2022-10-16T10:40:38;20.10;76.80
70366;DHT22;57787;48.216;12.396;2022-10-16T10:48:21;20.30;75.50
70366;DHT22;57787;48.216;12.396;2022-10-16T10:51:25;20.30;73.80
70366;DHT22;57787;48.216;12.396;2022-10-16T11:06:57;20.70;75.00
70366;DHT22;57787;48.216;12.396;2022-10-16T11:09:33;20.80;74.90
70366;DHT22;57787;48.216;12.396;2022-10-16T11:14:35;21.00;75.20
70366;DHT22;57787;48.216;12.396;2022-10-16T11:19:42;21.10;73.70
70366;DHT22;57787;48.216;12.396;2022-10-16T11:27:42;21.30;74.40
70366;DHT22;57787;48.216;12.396;2022-10-16T11:32:48;21.40;72.30
70366;DHT22;57787;48.216;12.396;2022-10-16T11:35:17;21.50;71.80
70366;DHT22;57787;48.216;12.396;2022-10-16T11:37:46;21.50;71.10
70366;DHT22;57787;48.216;12.396;2022-10-16T11:40:25;21.50;71.20
70366;DHT22;57787;48.216;12.396;2022-10-16T11:42:57;21.60;71.20
70366;DHT22;57787;48.216;12.396;2022-10-16T11:45:50;21.60;71.20
70366;DHT22;57787;48.216;12.396;2022-10-16T11:48:27;21.80;72.20
70366;DHT22;57787;48.216;12.396;2022-10-16T11:51:02;21.80;71.20
70366;DHT22;57787;48.216;12.396;2022-10-16T11:54:20;21.90;72.60
70366;DHT22;57787;48.216;12.396;2022-10-16T11:56:21;22.00;72.20
70366;DHT22;57787;48.216;12.396;2022-10-16T11:58:56;22.00;70.80
70366;DHT22;57787;48.216;12.396;2022-10-16T12:04:10;22.20;70.90
70366;DHT22;57787;48.216;12.396;2022-10-16T12:07:01;22.30;70.00
70366;DHT22;57787;48.216;12.396;2022-10-16T12:09:30;22.30;69.50
70366;DHT22;57787;48.216;12.396;2022-10-16T12:11:58;22.40;69.10
70366;DHT22;57787;48.216;12.396;2022-10-16T12:22:54;22.60;68.90
70366;DHT22;57787;48.216;12.396;2022-10-16T12:25:32;22.70;68.50
70366;DHT22;57787;48.216;12.396;2022-10-16T12:30:41;22.80;65.80
70366;DHT22;57787;48.216;12.396;2022-10-16T12:35:56;22.80;65.60
70366;DHT22;57787;48.216;12.396;2022-10-16T12:41:09;22.90;65.70
70366;DHT22;57787;48.216;12.396;2022-10-16T12:43:38;22.90;64.10
70366;DHT22;57787;48.216;12.396;2022-10-16T12:48:36;23.00;61.60
70366;DHT22;57787;48.216;12.396;2022-10-16T13:02:08;23.50;58.70
70366;DHT22;57787;48.216;12.396;2022-10-16T13:04:37;23.60;58.00
70366;DHT22;57787;48.216;12.396;2022-10-16T13:07:17;23.70;56.10
70366;DHT22;57787;48.216;12.396;2022-10-16T13:10:10;23.80;54.10
70366;DHT22;57787;48.216;12.396;2022-10-16T13:23:17;23.90;53.80
70366;DHT22;57787;48.216;12.396;2022-10-16T13:28:13;23.80;56.20
70366;DHT22;57787;48.216;12.396;2022-10-16T13:30:40;23.80;57.20
70366;DHT22;57787;48.216;12.396;2022-10-16T13:35:36;23.80;55.40
70366;DHT22;57787;48.216;12.396;2022-10-16T13:38:11;23.80;55.10
70366;DHT22;57787;48.216;12.396;2022-10-16T13:43:39;23.80;55.20
70366;DHT22;57787;48.216;12.396;2022-10-16T13:46:11;23.70;54.10
70366;DHT22;57787;48.216;12.396;2022-10-16T13:48:39;23.70;55.30
70366;DHT22;57787;48.216;12.396;2022-10-16T13:51:13;23.60;54.40
70366;DHT22;57787;48.216;12.396;2022-10-16T13:53:40;23.60;53.90
70366;DHT22;57787;48.216;12.396;2022-10-16T13:56:18;23.50;55.30
70366;DHT22;57787;48.216;12.396;2022-10-16T13:58:46;23.40;54.90
70366;DHT22;57787;48.216;12.396;2022-10-16T14:03:40;23.30;54.40
70366;DHT22;57787;48.216;12.396;2022-10-16T14:06:11;23.30;52.40
70366;DHT22;57787;48.216;12.396;2022-10-16T14:08:40;23.30;49.60
70366;DHT22;57787;48.216;12.396;2022-10-16T14:11:08;23.30;49.00
70366;DHT22;57787;48.216;12.396;2022-10-16T14:13:38;23.20;51.70
70366;DHT22;57787;48.216;12.396;2022-10-16T14:16:09;23.20;52.50
70366;DHT22;57787;48.216;12.396;2022-10-16T14:18:37;23.20;56.10
70366;DHT22;57787;48.216;12.396;2022-10-16T14:21:05;23.20;57.30
70366;DHT22;57787;48.216;12.396;2022-10-16T14:23:35;23.20;56.90
70366;DHT22;57787;48.216;12.396;2022-10-16T14:28:36;23.10;57.70
70366;DHT22;57787;48.216;12.396;2022-10-16T14:31:20;23.10;58.00
70366;DHT22;57787;48.216;12.396;2022-10-16T14:33:50;23.10;58.70
70366;DHT22;57787;48.216;12.396;2022-10-16T14:36:17;23.00;59.00
70366;DHT22;57787;48.216;12.396;2022-10-16T14:41:40;22.90;58.90
70366;DHT22;57787;48.216;12.396;2022-10-16T14:44:09;22.90;60.30
70366;DHT22;57787;48.216;12.396;2022-10-16T14:46:38;22.80;59.40
70366;DHT22;57787;48.216;12.396;2022-10-16T14:51:39;22.80;56.60
70366;DHT22;57787;48.216;12.396;2022-10-16T14:54:17;22.80;57.60
70366;DHT22;57787;48.216;12.396;2022-10-16T14:56:57;22.80;58.00
70366;DHT22;57787;48.216;12.396;2022-10-16T14:59:35;22.80;59.30
70366;DHT22;57787;48.216;12.396;2022-10-16T15:02:27;22.80;59.20
70366;DHT22;57787;48.216;12.396;2022-10-16T15:04:53;22.80;58.70
70366;DHT22;57787;48.216;12.396;2022-10-16T15:07:22;22.80;58.40
70366;DHT22;57787;48.216;12.396;2022-10-16T15:09:50;22.80;59.40
70366;DHT22;57787;48.216;12.396;2022-10-16T15:12:18;22.80;60.50
70366;DHT22;57787;48.216;12.396;2022-10-16T15:14:45;22.70;61.00
70366;DHT22;57787;48.216;12.396;2022-10-16T15:17:12;22.60;61.80
70366;DHT22;57787;48.216;12.396;2022-10-16T15:19:44;22.50;62.00
70366;DHT22;57787;48.216;12.396;2022-10-16T15:22:14;22.50;62.40
70366;DHT22;57787;48.216;12.396;2022-10-16T15:24:41;22.40;62.70
70366;DHT22;57787;48.216;12.396;2022-10-16T15:27:10;22.40;63.00
70366;DHT22;57787;48.216;12.396;2022-10-16T15:29:40;22.30;63.80
70366;DHT22;57787;48.216;12.396;2022-10-16T15:32:08;22.30;63.90
70366;DHT22;57787;48.216;12.396;2022-10-16T15:34:35;22.20;64.30
70366;DHT22;57787;48.216;12.396;2022-10-16T15:37:04;22.20;64.80
70366;DHT22;57787;48.216;12.396;2022-10-16T15:39:32;22.10;65.70
70366;DHT22;57787;48.216;12.396;2022-10-16T15:42:04;21.90;65.70
70366;DHT22;57787;48.216;12.396;2022-10-16T15:44:33;21.80;66.70
70366;DHT22;57787;48.216;12.396;2022-10-16T15:47:00;21.80;66.90
70366;DHT22;57787;48.216;12.396;2022-10-16T15:49:28;21.60;67.80
70366;DHT22;57787;48.216;12.396;2022-10-16T15:51:55;21.40;68.50
70366;DHT22;57787;48.216;12.396;2022-10-16T15:54:24;21.30;69.30
70366;DHT22;57787;48.216;12.396;2022-10-16T15:56:51;21.20;69.60
70366;DHT22;57787;48.216;12.396;2022-10-16T15:59:18;21.00;69.80
70366;DHT22;57787;48.216;12.396;2022-10-16T16:01:44;20.80;70.40
70366;DHT22;57787;48.216;12.396;2022-10-16T16:04:11;20.70;71.30
70366;DHT22;57787;48.216;12.396;2022-10-16T16:06:58;20.50;71.80
70366;DHT22;57787;48.216;12.396;2022-10-16T16:09:31;20.30;72.20
70366;DHT22;57787;48.216;12.396;2022-10-16T16:12:03;20.20;72.80
70366;DHT22;57787;48.216;12.396;2022-10-16T16:14:30;20.10;73.40
70366;DHT22;57787;48.216;12.396;2022-10-16T16:16:57;19.90;74.00
70366;DHT22;57787;48.216;12.396;2022-10-16T16:19:26;19.80;73.90
70366;DHT22;57787;48.216;12.396;2022-10-16T16:21:53;19.60;73.80
70366;DHT22;57787;48.216;12.396;2022-10-16T16:24:20;19.40;74.10
70366;DHT22;57787;48.216;12.396;2022-10-16T16:26:46;19.40;74.60
70366;DHT22;57787;48.216;12.396;2022-10-16T16:29:14;19.30;75.30
70366;DHT22;57787;48.216;12.396;2022-10-16T16:31:41;19.20;76.10
70366;DHT22;57787;48.216;12.396;2022-10-16T16:34:08;19.00;76.60
70366;DHT22;57787;48.216;12.396;2022-10-16T16:36:35;18.90;76.40
70366;DHT22;57787;48.216;12.396;2022-10-16T16:39:01;18.80;77.30
70366;DHT22;57787;48.216;12.396;2022-10-16T16:41:28;18.70;77.60
70366;DHT22;57787;48.216;12.396;2022-10-16T16:44:06;18.60;77.70
70366;DHT22;57787;48.216;12.396;2022-10-16T16:46:36;18.50;77.80
70366;DHT22;57787;48.216;12.396;2022-10-16T16:49:03;18.40;78.70
70366;DHT22;57787;48.216;12.396;2022-10-16T16:51:30;18.30;78.40
70366;DHT22;57787;48.216;12.396;2022-10-16T16:53:56;18.30;79.10
70366;DHT22;57787;48.216;12.396;2022-10-16T16:56:24;18.20;79.20
70366;DHT22;57787;48.216;12.396;2022-10-16T16:58:52;18.10;79.40
70366;DHT22;57787;48.216;12.396;2022-10-16T17:01:19;18.00;80.40
70366;DHT22;57787;48.216;12.396;2022-10-16T17:03:48;17.90;80.90
70366;DHT22;57787;48.216;12.396;2022-10-16T17:06:18;17.80;81.00
70366;DHT22;57787;48.216;12.396;2022-10-16T17:08:47;17.80;81.40
70366;DHT22;57787;48.216;12.396;2022-10-16T17:11:14;17.70;81.50
70366;DHT22;57787;48.216;12.396;2022-10-16T17:13:42;17.60;81.70
70366;DHT22;57787;48.216;12.396;2022-10-16T17:16:09;17.50;81.20
70366;DHT22;57787;48.216;12.396;2022-10-16T17:18:36;17.50;81.80
70366;DHT22;57787;48.216;12.396;2022-10-16T17:21:04;17.40;81.90
70366;DHT22;57787;48.216;12.396;2022-10-16T17:23:32;17.30;82.40
70366;DHT22;57787;48.216;12.396;2022-10-16T17:26:05;17.30;81.80
70366;DHT22;57787;48.216;12.396;2022-10-16T17:28:35;17.20;82.10
70366;DHT22;57787;48.216;12.396;2022-10-16T17:31:12;17.10;82.10
70366;DHT22;57787;48.216;12.396;2022-10-16T17:33:41;17.10;82.50
70366;DHT22;57787;48.216;12.396;2022-10-16T17:36:09;17.00;82.50
70366;DHT22;57787;48.216;12.396;2022-10-16T17:38:37;16.90;82.40
70366;DHT22;57787;48.216;12.396;2022-10-16T17:41:18;16.80;82.60